Time;durP1;ratioP1;P1;durP2;ratioP2;P2;SDS_P1;SDS_P2;PMS_P1;PMS_P2;Temp;Humidity;BMP_temperature;BMP_pressure;BME280_temperature;BME280_humidity;BME280_pressure;Samples;Min_cycle;Max_cycle;Signal;HPM_P1;HPM_P2
2022/07/11 00:02:13;;;;;;;0.80;0.40;;;19.00;86.00;;;;;;6244106;23;20058;-75
2022/07/11 00:04:39;;;;;;;0.98;0.57;;;19.10;85.90;;;;;;6240317;23;20009;-75
2022/07/11 00:07:05;;;;;;;0.68;0.50;;;19.10;85.90;;;;;;6215763;23;20008;-75
2022/07/11 00:09:31;;;;;;;0.90;0.50;;;19.10;85.80;;;;;;6241652;23;20075;-75
2022/07/11 00:11:57;;;;;;;1.95;0.50;;;19.10;86.00;;;;;;6242778;23;20000;-75
2022/07/11 00:14:24;;;;;;;1.60;0.65;;;19.10;86.10;;;;;;6216501;23;20015;-75
2022/07/11 00:16:51;;;;;;;1.05;0.60;;;19.00;86.00;;;;;;6243798;23;20000;-75
2022/07/11 00:19:16;;;;;;;0.82;0.77;;;19.00;86.20;;;;;;6243431;23;20004;-75
2022/07/11 00:21:42;;;;;;;2.58;0.73;;;18.90;86.30;;;;;;6216429;23;20000;-75
2022/07/11 00:24:08;;;;;;;1.08;0.60;;;19.00;86.30;;;;;;6243601;23;20035;-75
2022/07/11 00:26:34;;;;;;;1.90;0.60;;;19.00;86.40;;;;;;6216365;23;20008;-75
2022/07/11 00:29:00;;;;;;;1.58;0.80;;;19.00;86.40;;;;;;6217391;23;20070;-76
2022/07/11 00:31:25;;;;;;;0.82;0.60;;;19.00;86.40;;;;;;6243524;23;20430;-75
2022/07/11 00:33:51;;;;;;;0.80;0.50;;;18.90;86.50;;;;;;6243199;23;20074;-75
2022/07/11 00:36:16;;;;;;;2.33;0.80;;;19.00;86.60;;;;;;6242169;23;20000;-75
2022/07/11 00:38:42;;;;;;;0.93;0.60;;;19.00;86.70;;;;;;6243464;23;20004;-75
2022/07/11 00:41:07;;;;;;;1.30;0.60;;;19.00;86.80;;;;;;6243345;23;20349;-75
2022/07/11 00:43:35;;;;;;;0.63;0.50;;;18.90;86.60;;;;;;6243206;23;20003;-75
2022/07/11 00:46:01;;;;;;;0.50;0.50;;;19.00;86.80;;;;;;6243646;23;20023;-75
2022/07/11 00:48:27;;;;;;;1.08;0.60;;;19.00;86.60;;;;;;6243162;23;20422;-75
2022/07/11 00:50:53;;;;;;;1.42;0.60;;;19.00;86.60;;;;;;6243524;23;20000;-75
2022/07/11 00:53:20;;;;;;;0.43;0.40;;;19.00;86.40;;;;;;6243352;23;20027;-75
2022/07/11 00:55:46;;;;;;;1.10;0.60;;;19.00;86.20;;;;;;6243033;23;20007;-75
2022/07/11 00:58:12;;;;;;;1.00;0.55;;;19.00;86.10;;;;;;6243399;23;20000;-75
2022/07/11 01:00:39;;;;;;;1.55;0.60;;;19.10;86.10;;;;;;6243433;23;20497;-75
2022/07/11 01:03:06;;;;;;;1.20;0.60;;;19.10;86.10;;;;;;6243509;23;20083;-75
2022/07/11 01:05:31;;;;;;;1.80;0.50;;;19.10;86.10;;;;;;6216186;23;20430;-75
2022/07/11 01:07:57;;;;;;;1.27;0.63;;;19.00;86.20;;;;;;6242058;23;20031;-75
2022/07/11 01:10:23;;;;;;;0.65;0.50;;;19.00;86.30;;;;;;6243399;23;20031;-75
2022/07/11 01:12:49;;;;;;;1.02;0.70;;;19.00;86.30;;;;;;6243310;23;20007;-75
2022/07/11 01:15:15;;;;;;;1.48;0.60;;;19.00;86.40;;;;;;6215947;23;20438;-75
2022/07/11 01:17:41;;;;;;;2.28;0.80;;;19.00;86.50;;;;;;6243416;23;20000;-75
2022/07/11 01:20:07;;;;;;;0.40;0.40;;;19.00;86.70;;;;;;6216377;23;20007;-76
2022/07/11 01:22:37;;;;;;;1.35;0.80;;;19.00;86.80;;;;;;6242898;23;20008;-75
2022/07/11 01:25:02;;;;;;;1.52;0.70;;;18.90;86.70;;;;;;6242939;23;20007;-75
2022/07/11 01:27:28;;;;;;;1.48;0.68;;;19.00;86.90;;;;;;6243568;23;20008;-75
2022/07/11 01:29:54;;;;;;;0.73;0.65;;;18.90;86.70;;;;;;6241594;23;20012;-75
2022/07/11 01:32:21;;;;;;;0.68;0.60;;;19.00;86.90;;;;;;6243556;23;20043;-75
2022/07/11 01:34:47;;;;;;;1.13;0.65;;;19.00;86.90;;;;;;6218006;23;20012;-75
2022/07/11 01:37:12;;;;;;;1.25;0.70;;;18.90;86.90;;;;;;6218531;23;20480;-75
2022/07/11 01:39:38;;;;;;;1.05;0.63;;;18.90;86.90;;;;;;6243837;23;20520;-75
2022/07/11 01:42:04;;;;;;;1.45;0.50;;;18.90;86.90;;;;;;6245167;23;20003;-74
2022/07/11 01:44:29;;;;;;;0.60;0.50;;;18.90;86.80;;;;;;6244615;23;20004;-75
2022/07/11 01:46:55;;;;;;;0.47;0.45;;;19.00;86.80;;;;;;6243395;23;20417;-76
2022/07/11 01:49:20;;;;;;;1.25;0.60;;;19.00;86.60;;;;;;6245194;23;20004;-75
2022/07/11 01:51:48;;;;;;;1.25;0.50;;;19.00;86.40;;;;;;6245379;23;20008;-74
2022/07/11 01:54:14;;;;;;;0.77;0.52;;;19.00;86.30;;;;;;6217985;23;20008;-75
2022/07/11 01:56:40;;;;;;;0.70;0.60;;;19.00;86.20;;;;;;6244998;23;20429;-75
2022/07/11 01:59:05;;;;;;;0.90;0.68;;;19.10;86.30;;;;;;6245503;23;20027;-75
2022/07/11 02:01:31;;;;;;;1.70;0.70;;;19.00;86.40;;;;;;6244931;23;20004;-74
2022/07/11 02:03:56;;;;;;;1.48;0.95;;;19.00;86.50;;;;;;6244857;23;20003;-75
2022/07/11 02:06:22;;;;;;;1.25;0.88;;;19.00;86.50;;;;;;6245197;23;20010;-75
2022/07/11 02:08:47;;;;;;;1.10;0.60;;;19.00;86.60;;;;;;6244878;23;20004;-75
2022/07/11 02:11:13;;;;;;;1.65;0.80;;;19.00;86.70;;;;;;6243697;23;20015;-75
2022/07/11 02:13:38;;;;;;;1.50;0.80;;;19.00;86.90;;;;;;6244106;23;20016;-73
2022/07/11 02:16:04;;;;;;;1.08;0.70;;;18.90;86.80;;;;;;6243402;23;20085;-75
2022/07/11 02:18:30;;;;;;;1.27;0.70;;;18.90;86.90;;;;;;6244801;23;20054;-75
2022/07/11 02:20:55;;;;;;;1.42;0.73;;;18.90;86.90;;;;;;6218057;23;20438;-75
2022/07/11 02:23:21;;;;;;;1.15;0.70;;;18.90;87.00;;;;;;6217756;23;20066;-75
2022/07/11 02:25:48;;;;;;;1.17;0.70;;;19.00;87.10;;;;;;6243127;23;20000;-75
2022/07/11 02:28:14;;;;;;;1.10;0.60;;;18.90;87.00;;;;;;6244809;23;20008;-75
2022/07/11 02:30:42;;;;;;;2.25;0.80;;;18.90;87.10;;;;;;6218437;23;20000;-75
2022/07/11 02:33:08;;;;;;;1.73;0.80;;;18.90;87.10;;;;;;6244771;23;20697;-75
2022/07/11 02:35:34;;;;;;;0.77;0.60;;;18.90;87.10;;;;;;6244116;23;20004;-75
2022/07/11 02:38:00;;;;;;;0.77;0.60;;;18.90;87.00;;;;;;6218059;23;20441;-75
2022/07/11 02:40:28;;;;;;;1.75;0.52;;;18.90;87.00;;;;;;6244689;23;20003;-75
2022/07/11 02:42:55;;;;;;;1.20;0.70;;;19.00;86.90;;;;;;6244361;23;20004;-75
2022/07/11 02:45:20;;;;;;;0.75;0.50;;;19.00;86.70;;;;;;6244363;23;20000;-75
2022/07/11 02:47:46;;;;;;;2.03;0.63;;;19.00;86.60;;;;;;6239787;23;20023;-73
2022/07/11 02:50:12;;;;;;;0.93;0.60;;;19.00;86.50;;;;;;6242049;23;20004;-75
2022/07/11 02:52:40;;;;;;;0.73;0.60;;;19.00;86.40;;;;;;6244694;23;20414;-75
2022/07/11 02:55:07;;;;;;;0.95;0.50;;;19.00;86.60;;;;;;6217270;23;20461;-75
2022/07/11 02:57:34;;;;;;;1.33;0.70;;;19.00;86.70;;;;;;6243984;23;20011;-76
2022/07/11 02:59:59;;;;;;;0.70;0.60;;;19.00;86.70;;;;;;6217291;23;20007;-75
2022/07/11 03:02:25;;;;;;;1.17;0.77;;;19.00;86.80;;;;;;6244289;23;20004;-75
2022/07/11 03:04:51;;;;;;;1.55;0.70;;;18.90;86.70;;;;;;6216892;23;20011;-76
2022/07/11 03:07:16;;;;;;;0.80;0.70;;;19.00;87.10;;;;;;6243300;23;20688;-75
2022/07/11 03:09:43;;;;;;;0.70;0.60;;;18.90;87.10;;;;;;6244406;23;20010;-75
2022/07/11 03:12:08;;;;;;;0.90;0.70;;;18.90;87.10;;;;;;6244616;23;20008;-75
2022/07/11 03:14:34;;;;;;;0.73;0.70;;;18.90;87.20;;;;;;6217115;23;20008;-75
2022/07/11 03:16:59;;;;;;;1.80;0.80;;;18.90;87.20;;;;;;6242952;23;20088;-75
2022/07/11 03:19:25;;;;;;;1.40;0.70;;;18.90;87.30;;;;;;6244576;23;20000;-75
2022/07/11 03:21:50;;;;;;;1.17;0.70;;;18.90;87.30;;;;;;6244423;23;20001;-75
2022/07/11 03:24:16;;;;;;;1.15;0.75;;;18.90;87.40;;;;;;6244033;23;20000;-75
2022/07/11 03:26:41;;;;;;;0.65;0.60;;;18.90;87.30;;;;;;6217777;23;20079;-73
2022/07/11 03:29:08;;;;;;;1.60;0.75;;;18.90;87.30;;;;;;6244448;23;20031;-74
2022/07/11 03:31:34;;;;;;;0.60;0.60;;;18.90;87.40;;;;;;6244423;23;20050;-74
2022/07/11 03:33:59;;;;;;;0.75;0.70;;;18.90;87.20;;;;;;6216877;23;20083;-74
2022/07/11 03:36:25;;;;;;;0.93;0.68;;;18.90;87.10;;;;;;6244298;23;20039;-74
2022/07/11 03:38:51;;;;;;;1.15;0.73;;;18.90;86.90;;;;;;6244310;23;20000;-73
2022/07/11 03:41:16;;;;;;;1.38;0.60;;;19.00;86.80;;;;;;6217367;23;20000;-74
2022/07/11 03:43:42;;;;;;;1.77;0.80;;;19.00;86.70;;;;;;6243889;23;20000;-74
2022/07/11 03:46:07;;;;;;;1.00;0.60;;;19.00;86.70;;;;;;6243950;23;20030;-74
2022/07/11 03:48:33;;;;;;;0.70;0.60;;;19.00;86.70;;;;;;6242678;23;20039;-74
2022/07/11 03:50:58;;;;;;;1.20;0.80;;;19.00;86.80;;;;;;6244316;23;20107;-74
2022/07/11 03:53:24;;;;;;;1.02;0.80;;;19.00;86.80;;;;;;6244159;23;20441;-74
2022/07/11 03:55:49;;;;;;;1.58;0.90;;;19.00;86.90;;;;;;6216343;23;20004;-74
2022/07/11 03:58:15;;;;;;;1.60;0.70;;;18.90;86.90;;;;;;6244043;23;20366;-74
2022/07/11 04:00:40;;;;;;;0.90;0.80;;;18.90;87.00;;;;;;6217183;23;20010;-74
2022/07/11 04:03:06;;;;;;;1.77;0.93;;;18.90;87.30;;;;;;6217317;23;20000;-75
2022/07/11 04:05:31;;;;;;;1.17;0.90;;;18.90;87.30;;;;;;6243679;23;20413;-73
2022/07/11 04:07:57;;;;;;;2.50;1.05;;;18.90;87.30;;;;;;6217401;23;20011;-73
2022/07/11 04:10:23;;;;;;;1.67;0.80;;;18.90;87.30;;;;;;6244474;23;20422;-74
2022/07/11 04:12:49;;;;;;;1.50;0.90;;;18.90;87.40;;;;;;6241330;23;20004;-73
2022/07/11 04:15:15;;;;;;;1.15;0.90;;;18.90;87.40;;;;;;6217463;23;20015;-72
2022/07/11 04:17:41;;;;;;;1.20;0.90;;;18.90;87.50;;;;;;6243747;23;20437;-74
2022/07/11 04:20:09;;;;;;;1.35;1.00;;;18.90;87.50;;;;;;6218277;23;20047;-74
2022/07/11 04:22:34;;;;;;;1.90;0.77;;;18.90;87.50;;;;;;6217549;23;20000;-74
2022/07/11 04:25:00;;;;;;;0.85;0.70;;;18.90;87.50;;;;;;6243701;23;20011;-73
2022/07/11 04:27:26;;;;;;;1.33;0.80;;;18.90;87.40;;;;;;6243211;23;20008;-74
2022/07/11 04:29:52;;;;;;;1.23;0.70;;;19.00;87.40;;;;;;6243406;23;20058;-74
2022/07/11 04:32:18;;;;;;;1.75;0.88;;;18.90;87.20;;;;;;6244776;23;20058;-74
2022/07/11 04:34:44;;;;;;;0.90;0.57;;;18.90;86.90;;;;;;6216592;23;20137;-74
2022/07/11 04:37:10;;;;;;;1.63;0.77;;;19.00;87.40;;;;;;6238884;23;20074;-74
2022/07/11 04:39:47;;;;;;;1.02;0.88;;;19.00;86.80;;;;;;6217501;23;20004;-74
2022/07/11 04:42:16;;;;;;;1.77;0.90;;;19.10;86.80;;;;;;6217799;23;19996;-73
2022/07/11 04:44:49;;;;;;;0.90;0.60;;;19.00;87.00;;;;;;6242035;23;20008;-73
2022/07/11 04:47:34;;;;;;;0.85;0.80;;;19.00;87.00;;;;;;6244204;23;20027;-72
2022/07/11 04:50:16;;;;;;;1.27;0.77;;;18.90;86.90;;;;;;6215679;23;20348;-72
2022/07/11 04:52:42;;;;;;;1.17;0.90;;;18.90;86.90;;;;;;6216447;23;20389;-72
2022/07/11 04:55:10;;;;;;;1.40;0.90;;;19.00;87.10;;;;;;6243943;23;20004;-73
2022/07/11 05:00:54;;;;;;;1.20;0.88;;;18.90;87.40;;;;;;6243865;23;20004;-73
2022/07/11 05:03:32;;;;;;;1.50;1.00;;;19.00;87.50;;;;;;6216727;23;20093;-71
2022/07/11 05:06:01;;;;;;;1.20;0.90;;;18.90;88.00;;;;;;6243071;23;19996;-69
2022/07/11 05:08:36;;;;;;;1.95;0.90;;;18.90;87.40;;;;;;6244756;23;20000;-73
2022/07/11 05:11:03;;;;;;;1.55;1.08;;;19.00;87.60;;;;;;6216997;23;20000;-73
2022/07/11 05:13:37;;;;;;;1.05;0.88;;;18.90;87.60;;;;;;6215682;23;20007;-73
2022/07/11 05:16:09;;;;;;;1.40;0.90;;;17.20;86.80;;;;;;6217682;23;20010;-74
2022/07/11 05:18:35;;;;;;;1.70;0.90;;;18.90;87.60;;;;;;6214049;23;20007;-73
2022/07/11 05:21:01;;;;;;;2.55;0.82;;;18.90;87.70;;;;;;6217095;23;20004;-73
2022/07/11 05:23:29;;;;;;;1.00;0.73;;;19.10;87.70;;;;;;6244007;23;20023;-73
2022/07/11 05:25:55;;;;;;;1.48;0.85;;;18.90;87.50;;;;;;6217532;23;20386;-74
2022/07/11 05:28:21;;;;;;;1.63;0.80;;;19.00;87.30;;;;;;6217631;23;20000;-73
2022/07/11 05:30:49;;;;;;;1.08;0.77;;;19.00;87.10;;;;;;6243289;23;20027;-73
2022/07/11 05:33:28;;;;;;;0.70;0.70;;;19.10;87.10;;;;;;6243251;23;20426;-73
2022/07/11 05:36:04;;;;;;;1.10;0.73;;;19.00;87.00;;;;;;6243654;23;20461;-73
2022/07/11 05:38:30;;;;;;;1.58;0.90;;;19.00;86.80;;;;;;6218085;23;20002;-73
2022/07/11 05:40:59;;;;;;;1.45;0.85;;;19.00;86.80;;;;;;6245107;23;20000;-73
2022/07/11 05:43:31;;;;;;;2.83;0.90;;;19.00;87.00;;;;;;6217965;23;19996;-73
2022/07/11 05:45:57;;;;;;;;;;;18.90;87.00;;;;;;6242687;23;20006;-73
2022/07/11 05:48:28;;;;;;;1.92;0.95;;;18.90;87.10;;;;;;6244423;23;19931;-73
2022/07/11 05:50:54;;;;;;;1.60;0.95;;;18.90;87.20;;;;;;6218282;23;20000;-73
2022/07/11 05:53:19;;;;;;;1.67;0.90;;;18.90;87.30;;;;;;6243613;23;20019;-72
2022/07/11 05:55:44;;;;;;;1.90;1.10;;;19.00;87.40;;;;;;6214926;23;20000;-74
2022/07/11 05:58:10;;;;;;;1.52;0.98;;;18.90;87.40;;;;;;6242807;23;20074;-74
2022/07/11 06:00:35;;;;;;;1.52;1.00;;;18.90;87.40;;;;;;6242543;23;20000;-74
2022/07/11 06:03:01;;;;;;;2.15;0.90;;;18.90;87.40;;;;;;6215989;23;20023;-73
2022/07/11 06:05:27;;;;;;;1.45;1.02;;;18.90;87.50;;;;;;6242146;23;20075;-73
2022/07/11 06:10:38;;;;;;;1.42;0.90;;;18.90;87.50;;;;;;6242955;23;20074;-74
2022/07/11 06:13:03;;;;;;;1.20;1.00;;;18.90;87.50;;;;;;6242755;23;20004;-74
2022/07/11 06:15:29;;;;;;;1.73;1.05;;;18.90;87.50;;;;;;6242399;23;20004;-74
2022/07/11 06:17:54;;;;;;;1.50;0.82;;;18.90;87.40;;;;;;6241961;23;20005;-74
2022/07/11 06:20:20;;;;;;;2.42;0.95;;;19.00;87.30;;;;;;6217992;23;20057;-73
2022/07/11 06:22:45;;;;;;;2.85;1.10;;;19.00;87.20;;;;;;6244683;23;20421;-73
2022/07/11 06:25:11;;;;;;;1.60;1.08;;;19.00;87.10;;;;;;6244552;23;20007;-73
2022/07/11 06:27:37;;;;;;;1.70;1.00;;;19.10;87.00;;;;;;6244743;23;20027;-74
2022/07/11 06:30:03;;;;;;;1.85;1.20;;;19.00;86.90;;;;;;6244083;23;20008;-74
2022/07/11 06:32:31;;;;;;;2.33;0.95;;;19.10;86.90;;;;;;6244304;23;20011;-74
2022/07/11 06:34:56;;;;;;;2.40;1.05;;;19.10;87.00;;;;;;6244055;23;20000;-74
2022/07/11 06:37:22;;;;;;;1.60;0.90;;;19.00;87.00;;;;;;6244329;23;20000;-74
2022/07/11 06:39:47;;;;;;;2.85;1.00;;;19.00;87.10;;;;;;6244749;23;20075;-74
2022/07/11 06:42:13;;;;;;;2.30;1.00;;;19.00;87.20;;;;;;6244547;23;20026;-74
2022/07/11 06:44:38;;;;;;;2.85;0.90;;;19.00;87.20;;;;;;6244294;23;20012;-74
2022/07/11 06:47:05;;;;;;;6.78;1.35;;;19.00;87.20;;;;;;6244625;23;20003;-74
2022/07/11 06:49:30;;;;;;;2.00;1.10;;;19.00;87.20;;;;;;6244582;23;20011;-74
2022/07/11 06:51:56;;;;;;;2.95;1.15;;;19.00;87.10;;;;;;6244516;23;20008;-74
2022/07/11 06:54:21;;;;;;;3.53;1.20;;;19.00;87.00;;;;;;6242398;23;20058;-73
2022/07/11 06:56:47;;;;;;;4.35;1.23;;;19.00;87.00;;;;;;6244511;23;20000;-74
2022/07/11 06:59:12;;;;;;;3.83;1.10;;;19.00;87.00;;;;;;6244521;23;20341;-74
2022/07/11 07:01:38;;;;;;;4.07;1.20;;;19.00;87.10;;;;;;6244552;23;20048;-74
2022/07/11 07:04:03;;;;;;;2.97;1.10;;;19.10;87.20;;;;;;6243960;23;20588;-73
2022/07/11 07:06:29;;;;;;;2.10;1.17;;;19.00;87.10;;;;;;6217924;23;20004;-74
2022/07/11 07:08:54;;;;;;;1.88;1.08;;;19.00;87.30;;;;;;6244332;23;20491;-75
2022/07/11 07:11:20;;;;;;;2.13;0.88;;;19.00;87.30;;;;;;6244542;23;20035;-74
2022/07/11 07:13:45;;;;;;;3.75;1.10;;;19.00;87.00;;;;;;6216726;23;20008;-74
2022/07/11 07:16:11;;;;;;;4.43;1.20;;;19.00;87.00;;;;;;6244351;23;20011;-74
2022/07/11 07:18:42;;;;;;;5.88;1.10;;;19.10;86.80;;;;;;6242757;23;20620;-74
2022/07/11 07:21:08;;;;;;;3.55;1.08;;;19.10;86.60;;;;;;6244447;23;20000;-74
2022/07/11 07:23:33;;;;;;;2.13;1.00;;;19.20;86.50;;;;;;6217562;23;20012;-74
2022/07/11 07:25:59;;;;;;;4.20;1.42;;;19.20;86.20;;;;;;6244029;23;20469;-74
2022/07/11 07:28:28;;;;;;;2.05;1.10;;;19.20;86.20;;;;;;6244243;23;20034;-74
2022/07/11 07:30:53;;;;;;;2.13;0.85;;;19.20;86.10;;;;;;6244325;23;20001;-74
2022/07/11 07:33:19;;;;;;;3.45;1.10;;;19.20;86.10;;;;;;6217194;23;20528;-74
2022/07/11 07:35:44;;;;;;;2.08;1.00;;;19.20;86.30;;;;;;6243907;23;20042;-75
2022/07/11 07:38:10;;;;;;;2.22;1.00;;;19.20;86.30;;;;;;6244329;23;19996;-74
2022/07/11 07:40:35;;;;;;;3.05;1.02;;;19.20;86.50;;;;;;6244333;23;20345;-74
2022/07/11 07:43:01;;;;;;;2.35;1.00;;;19.10;86.50;;;;;;6244002;23;20003;-74
2022/07/11 07:45:26;;;;;;;3.10;1.00;;;19.10;86.50;;;;;;6216775;23;20441;-74
2022/07/11 07:47:52;;;;;;;1.58;0.88;;;19.10;86.50;;;;;;6243963;23;20023;-74
2022/07/11 07:50:18;;;;;;;2.15;0.98;;;19.10;86.60;;;;;;6242403;23;20397;-74
2022/07/11 07:52:43;;;;;;;2.17;0.90;;;19.10;86.70;;;;;;6217239;23;20008;-74
2022/07/11 07:55:09;;;;;;;1.88;1.00;;;19.10;86.70;;;;;;6216651;23;20483;-74
2022/07/11 07:57:34;;;;;;;1.83;0.90;;;19.10;86.50;;;;;;6244014;23;20000;-74
2022/07/11 08:02:44;;;;;;;2.35;0.90;;;19.20;86.50;;;;;;6244124;23;20396;-74
2022/07/11 08:05:09;;;;;;;1.60;0.80;;;19.20;86.40;;;;;;6243467;23;20004;-74
2022/07/11 08:07:36;;;;;;;1.77;0.85;;;19.20;86.50;;;;;;6242446;23;20004;-74
2022/07/11 08:10:04;;;;;;;2.75;0.93;;;19.20;86.50;;;;;;6216999;23;20057;-74
2022/07/11 08:12:30;;;;;;;2.60;1.00;;;19.20;86.40;;;;;;6243826;23;20001;-74
2022/07/11 08:14:55;;;;;;;2.88;1.00;;;19.20;86.30;;;;;;6243094;23;20326;-74
2022/07/11 08:17:21;;;;;;;1.77;0.90;;;19.20;86.20;;;;;;6243801;23;20071;-74
2022/07/11 08:19:46;;;;;;;1.95;1.00;;;19.20;86.10;;;;;;6243832;23;20075;-74
2022/07/11 08:22:12;;;;;;;2.50;0.90;;;19.20;86.10;;;;;;6242247;23;20011;-75
2022/07/11 08:24:37;;;;;;;3.25;1.10;;;19.20;86.10;;;;;;6243219;23;20445;-74
2022/07/11 08:27:03;;;;;;;1.98;0.98;;;19.20;86.20;;;;;;6243796;23;20004;-74
2022/07/11 08:29:29;;;;;;;2.97;1.30;;;19.20;86.30;;;;;;6243862;23;20354;-74
2022/07/11 08:31:54;;;;;;;2.55;0.90;;;19.20;86.40;;;;;;6241578;23;20011;-74
2022/07/11 08:34:19;;;;;;;1.88;0.90;;;19.10;86.50;;;;;;6216260;23;20057;-74
2022/07/11 08:36:45;;;;;;;1.95;1.05;;;19.10;86.60;;;;;;6214728;23;19996;-74
2022/07/11 08:39:10;;;;;;;1.65;0.95;;;19.10;86.70;;;;;;6243349;23;20008;-74
2022/07/11 08:41:42;;;;;;;1.75;0.90;;;19.10;86.80;;;;;;6243408;23;20032;-74
2022/07/11 08:44:08;;;;;;;2.08;0.90;;;19.10;86.80;;;;;;6243001;23;20497;-74
2022/07/11 08:46:34;;;;;;;2.13;0.90;;;19.10;86.80;;;;;;6216722;23;20032;-74
2022/07/11 08:49:01;;;;;;;1.52;0.85;;;19.10;86.80;;;;;;6243487;23;20434;-74
2022/07/11 08:51:27;;;;;;;1.45;0.80;;;19.10;86.80;;;;;;6243724;23;20437;-74
2022/07/11 08:53:53;;;;;;;1.00;0.80;;;19.10;86.70;;;;;;6241287;23;20004;-73
2022/07/11 08:56:21;;;;;;;2.17;0.88;;;19.10;86.80;;;;;;6243530;23;20008;-74
2022/07/11 08:58:48;;;;;;;1.90;0.90;;;19.10;86.80;;;;;;6216577;23;20342;-74
2022/07/11 09:01:16;;;;;;;2.20;0.93;;;19.10;86.80;;;;;;6243414;23;20319;-74
2022/07/11 09:03:42;;;;;;;1.52;0.95;;;19.10;86.80;;;;;;6243244;23;20004;-74
2022/07/11 09:06:08;;;;;;;2.47;0.95;;;19.10;86.70;;;;;;6243398;23;20002;-74
2022/07/11 09:08:34;;;;;;;2.15;1.10;;;19.10;86.50;;;;;;6243457;23;20422;-74
2022/07/11 09:11:00;;;;;;;1.85;0.90;;;19.20;86.50;;;;;;6243123;23;20007;-74
2022/07/11 09:13:32;;;;;;;1.67;0.90;;;19.30;86.30;;;;;;6216485;23;20059;-74
2022/07/11 09:16:03;;;;;;;2.92;1.08;;;19.20;86.20;;;;;;6216022;23;20008;-74
2022/07/11 09:18:37;;;;;;;1.45;0.90;;;19.20;86.20;;;;;;6243524;23;20010;-74
2022/07/11 09:26:44;;;;;;;1.83;0.90;;;19.20;86.40;;;;;;6243472;23;20031;-74
2022/07/11 09:29:12;;;;;;;0.95;0.80;;;19.10;86.40;;;;;;6216573;23;20004;-74
2022/07/11 09:31:40;;;;;;;1.88;0.82;;;19.10;86.50;;;;;;6243345;23;20026;-74
2022/07/11 09:34:08;;;;;;;1.58;0.80;;;19.10;86.60;;;;;;6242899;23;20456;-74
2022/07/11 09:36:56;;;;;;;1.40;0.80;;;19.10;86.70;;;;;;6216424;23;20004;-75
2022/07/11 09:39:23;;;;;;;1.92;1.05;;;19.10;86.80;;;;;;6216567;23;20083;-74
2022/07/11 09:41:51;;;;;;;2.08;0.90;;;19.10;86.80;;;;;;6243116;23;20015;-74
2022/07/11 09:44:27;;;;;;;1.77;0.80;;;19.10;86.80;;;;;;6216071;23;20004;-74
2022/07/11 09:46:53;;;;;;;2.60;0.82;;;19.10;86.80;;;;;;6243300;23;20437;-74
2022/07/11 09:49:36;;;;;;;3.45;0.90;;;19.10;86.90;;;;;;6243306;23;20008;-74
2022/07/11 09:52:10;;;;;;;1.00;0.82;;;19.10;86.90;;;;;;6243206;23;20008;-74
2022/07/11 09:54:52;;;;;;;1.20;0.80;;;19.10;87.00;;;;;;6218066;23;20016;-74
2022/07/11 09:57:18;;;;;;;3.17;0.88;;;19.10;87.00;;;;;;6218504;23;20353;-74
2022/07/11 09:59:54;;;;;;;1.08;0.90;;;19.10;86.90;;;;;;6245026;23;20006;-74
2022/07/11 10:02:19;;;;;;;1.52;0.93;;;19.10;86.80;;;;;;6245273;23;20075;-74
2022/07/11 10:04:45;;;;;;;1.83;0.68;;;19.10;86.70;;;;;;6217914;23;20089;-74
2022/07/11 10:07:10;;;;;;;1.08;0.80;;;19.20;86.70;;;;;;6218135;23;20012;-74
2022/07/11 10:09:36;;;;;;;1.42;0.80;;;19.20;86.60;;;;;;6245043;23;20015;-74
2022/07/11 10:12:02;;;;;;;0.98;0.80;;;19.20;86.50;;;;;;6244885;23;20091;-74
2022/07/11 10:14:28;;;;;;;1.00;0.80;;;19.10;86.40;;;;;;6244618;23;20079;-73
2022/07/11 10:17:07;;;;;;;1.10;0.70;;;19.20;86.50;;;;;;6218021;23;20396;-73
2022/07/11 10:19:57;;;;;;;4.60;1.58;;;19.10;86.50;;;;;;6218498;23;20004;-73
2022/07/11 10:22:39;;;;;;;1.00;0.80;;;19.10;86.50;;;;;;6244975;23;20000;-73
2022/07/11 10:25:20;;;;;;;3.38;0.80;;;19.10;86.70;;;;;;6244503;23;20008;-74
2022/07/11 10:27:48;;;;;;;0.85;0.75;;;19.20;86.80;;;;;;6218140;23;20008;-74
2022/07/11 10:30:39;;;;;;;2.33;1.27;;;19.10;86.90;;;;;;6244797;23;20495;-74
2022/07/11 10:33:06;;;;;;;0.93;0.70;;;19.10;86.90;;;;;;6244947;23;20004;-73
2022/07/11 10:35:32;;;;;;;1.08;0.70;;;19.10;86.90;;;;;;6242678;23;20043;-74
2022/07/11 10:37:58;;;;;;;1.25;0.80;;;19.10;86.90;;;;;;6243319;23;20000;-74
2022/07/11 10:40:52;;;;;;;1.20;0.80;;;19.10;86.90;;;;;;6243165;23;20010;-74
2022/07/11 10:43:30;;;;;;;0.93;0.70;;;19.10;86.90;;;;;;6218149;23;20408;-74
2022/07/11 10:46:03;;;;;;;1.48;0.70;;;19.10;86.90;;;;;;6217436;23;20071;-73
2022/07/11 10:48:31;;;;;;;1.25;0.80;;;19.10;87.00;;;;;;6217962;23;20016;-74
2022/07/11 10:51:00;;;;;;;1.20;0.80;;;19.10;87.00;;;;;;6217741;23;20008;-74
2022/07/11 10:53:30;;;;;;;0.95;0.85;;;19.10;87.00;;;;;;6217843;23;20000;-74
2022/07/11 10:56:14;;;;;;;1.40;1.00;;;19.10;86.90;;;;;;6244109;23;20008;-74
2022/07/11 10:58:43;;;;;;;1.33;0.75;;;19.10;86.90;;;;;;6244476;23;20008;-73
2022/07/11 11:01:11;;;;;;;0.65;0.63;;;19.10;86.70;;;;;;6242979;23;20005;-73
2022/07/11 11:03:37;;;;;;;1.35;0.93;;;19.20;86.70;;;;;;6217568;23;20091;-74
2022/07/11 11:06:03;;;;;;;1.40;0.80;;;19.20;86.60;;;;;;6244384;23;20059;-74
2022/07/11 11:08:32;;;;;;;0.90;0.70;;;19.20;86.60;;;;;;6244348;23;20365;-74
2022/07/11 11:11:02;;;;;;;1.05;0.75;;;19.10;86.70;;;;;;6217194;23;20004;-76
2022/07/11 11:13:28;;;;;;;1.77;0.82;;;19.10;86.80;;;;;;6212405;23;20004;-74
2022/07/11 11:15:55;;;;;;;3.05;0.75;;;19.10;86.90;;;;;;6243237;23;20396;-74
2022/07/11 11:18:26;;;;;;;0.98;0.70;;;19.10;86.90;;;;;;6216888;23;20004;-74
2022/07/11 11:23:30;;;;;;;2.33;0.90;;;19.00;87.00;;;;;;6244050;23;20008;-74
2022/07/11 11:26:16;;;;;;;2.65;0.80;;;19.10;87.10;;;;;;6243371;23;20062;-74
2022/07/11 11:28:59;;;;;;;3.20;0.98;;;19.10;87.10;;;;;;6243945;23;20004;-74
2022/07/11 11:31:26;;;;;;;2.97;0.70;;;19.00;87.10;;;;;;6216855;23;20069;-73
2022/07/11 11:33:52;;;;;;;1.90;0.90;;;19.00;87.20;;;;;;6242609;23;19996;-74
2022/07/11 11:36:20;;;;;;;2.90;0.80;;;19.00;87.20;;;;;;6243734;23;20027;-73
2022/07/11 11:38:46;;;;;;;1.50;0.68;;;19.00;87.10;;;;;;6243403;23;20028;-74
2022/07/11 11:41:14;;;;;;;3.22;0.80;;;19.00;87.20;;;;;;6244066;23;20336;-73
2022/07/11 11:43:44;;;;;;;2.10;0.70;;;19.00;87.20;;;;;;6216312;23;20024;-73
2022/07/11 11:46:12;;;;;;;2.45;0.95;;;19.10;87.70;;;;;;6243847;23;20000;-73
2022/07/11 11:48:39;;;;;;;1.08;0.60;;;19.10;87.20;;;;;;6217261;23;20109;-75
2022/07/11 11:51:24;;;;;;;3.00;0.80;;;19.10;87.20;;;;;;6217550;23;20008;-75
2022/07/11 11:53:57;;;;;;;3.33;0.80;;;19.10;87.00;;;;;;6243413;23;20004;-75
2022/07/11 11:56:34;;;;;;;1.15;0.73;;;19.10;86.80;;;;;;6217349;23;20319;-75
2022/07/11 11:59:00;;;;;;;2.08;0.80;;;19.20;86.70;;;;;;6217028;23;19996;-75
2022/07/11 12:01:28;;;;;;;1.00;0.63;;;19.20;86.70;;;;;;6217035;23;20004;-75
2022/07/11 12:03:55;;;;;;;1.58;0.70;;;19.20;86.50;;;;;;6243381;23;20003;-75
2022/07/11 12:06:27;;;;;;;3.72;0.90;;;19.20;86.60;;;;;;6242824;23;20024;-75
2022/07/11 12:08:59;;;;;;;2.58;0.70;;;19.20;86.60;;;;;;6215770;23;20342;-75
2022/07/11 12:11:25;;;;;;;2.70;0.80;;;19.20;86.70;;;;;;6244057;23;20023;-75
2022/07/11 12:14:03;;;;;;;1.70;0.95;;;19.10;86.70;;;;;;6242282;23;20008;-75
2022/07/11 12:16:44;;;;;;;1.95;1.05;;;19.10;86.80;;;;;;6216128;23;20087;-75
2022/07/11 12:19:24;;;;;;;1.15;0.70;;;19.00;86.90;;;;;;6217431;23;20039;-74
2022/07/11 12:21:53;;;;;;;2.15;0.90;;;19.10;87.00;;;;;;6244026;23;20028;-74
2022/07/11 12:24:26;;;;;;;2.58;0.70;;;19.10;87.10;;;;;;6216586;23;20012;-74
2022/07/11 12:26:52;;;;;;;2.30;0.90;;;19.10;87.10;;;;;;6216812;23;20015;-75
2022/07/11 12:29:27;;;;;;;1.30;0.65;;;19.00;87.10;;;;;;6244523;23;20008;-74
2022/07/11 12:31:54;;;;;;;2.53;0.90;;;19.10;87.20;;;;;;6217322;23;20011;-74
2022/07/11 12:34:40;;;;;;;3.13;0.77;;;19.10;87.20;;;;;;6217110;23;20014;-75
2022/07/11 12:37:06;;;;;;;2.40;0.80;;;19.00;87.20;;;;;;6216707;23;20061;-74
2022/07/11 12:39:35;;;;;;;1.63;0.77;;;19.00;87.30;;;;;;6244052;23;20441;-75
2022/07/11 12:42:19;;;;;;;1.20;0.70;;;19.00;87.30;;;;;;6243926;23;20031;-75
2022/07/11 12:44:58;;;;;;;1.95;0.68;;;19.00;87.30;;;;;;6243693;23;20039;-74
2022/07/11 12:47:28;;;;;;;2.08;0.90;;;19.00;87.30;;;;;;6244155;23;20004;-75
2022/07/11 12:49:55;;;;;;;1.27;0.80;;;19.10;87.20;;;;;;6243804;23;20008;-75
2022/07/11 12:52:21;;;;;;;1.48;0.80;;;19.10;87.10;;;;;;6244106;23;20012;-74
2022/07/11 12:54:46;;;;;;;1.77;0.70;;;19.10;87.00;;;;;;6243381;23;20344;-75
2022/07/11 12:57:20;;;;;;;1.85;0.73;;;19.10;86.90;;;;;;6244026;23;20341;-75
2022/07/11 12:59:46;;;;;;;1.60;0.80;;;19.10;86.80;;;;;;6243954;23;20003;-75
2022/07/11 13:02:13;;;;;;;1.50;0.70;;;19.10;86.90;;;;;;6243819;23;20000;-75
2022/07/11 13:04:40;;;;;;;1.17;0.73;;;19.10;86.90;;;;;;6243522;23;20315;-74
2022/07/11 13:10:23;;;;;;;1.25;0.70;;;19.10;87.00;;;;;;6244215;23;20019;-75
2022/07/11 13:12:51;;;;;;;1.08;0.80;;;19.10;87.20;;;;;;6216990;23;20054;-74